createdAt,value
2022-12-09T00:01:10.347Z,99751.88
2022-12-09T00:03:37.017Z,99760.53
2022-12-09T00:06:30.368Z,99752.50
2022-12-09T00:08:58.047Z,99759.22
2022-12-09T00:11:25.766Z,99760.56
2022-12-09T00:13:54.781Z,99756.84
2022-12-09T00:16:22.586Z,99765.09
2022-12-09T00:18:49.575Z,99767.84
2022-12-09T00:21:26.645Z,99768.34
2022-12-09T00:23:54.852Z,99756.94
2022-12-09T00:26:22.845Z,99759.00
2022-12-09T00:28:50.580Z,99758.50
2022-12-09T00:31:24.540Z,99765.06
2022-12-09T00:33:57.931Z,99766.59
2022-12-09T00:36:24.755Z,99759.03
2022-12-09T00:38:51.522Z,99772.88
2022-12-09T00:41:18.329Z,99770.31
2022-12-09T00:43:45.319Z,99761.59
2022-12-09T00:46:12.892Z,99763.03
2022-12-09T00:48:39.766Z,99756.31
2022-12-09T00:51:07.377Z,99759.78
2022-12-09T00:53:33.930Z,99766.09
2022-12-09T00:56:00.462Z,99757.59
2022-12-09T00:58:27.228Z,99760.53
2022-12-09T01:00:53.694Z,99760.66
2022-12-09T01:03:20.450Z,99757.59
2022-12-09T01:05:47.533Z,99754.78
2022-12-09T01:08:14.723Z,99758.59
2022-12-09T01:10:43.757Z,99759.09
2022-12-09T01:13:12.578Z,99759.91
2022-12-09T01:15:39.543Z,99761.84
2022-12-09T01:18:06.378Z,99763.28
2022-12-09T01:20:33.619Z,99769.50
2022-12-09T01:23:01.119Z,99769.44
2022-12-09T01:25:27.841Z,99777.03
2022-12-09T01:27:54.393Z,99772.78
2022-12-09T01:30:20.997Z,99772.66
2022-12-09T01:32:47.811Z,99774.28
2022-12-09T01:35:14.307Z,99770.03
2022-12-09T01:37:40.958Z,99761.22
2022-12-09T01:40:11.840Z,99764.16
2022-12-09T01:42:38.660Z,99765.69
2022-12-09T01:45:20.165Z,99767.69
2022-12-09T01:47:48.499Z,99764.38
2022-12-09T01:50:16.703Z,99766.19
2022-12-09T01:52:45.248Z,99762.06
2022-12-09T01:55:12.340Z,99759.88
2022-12-09T01:57:39.186Z,99760.28
2022-12-09T02:00:07.486Z,99762.44
2022-12-09T02:02:36.935Z,99765.38
2022-12-09T02:05:05.064Z,99759.78
2022-12-09T02:07:32.075Z,99761.16
2022-12-09T02:09:59.265Z,99755.69
2022-12-09T02:12:35.795Z,99760.47
2022-12-09T02:15:06.800Z,99757.31
2022-12-09T02:17:42.236Z,99760.78
2022-12-09T02:20:19.251Z,99762.91
2022-12-09T02:22:49.921Z,99764.16
2022-12-09T02:25:29.670Z,99759.16
2022-12-09T02:28:11.175Z,99753.44
2022-12-09T02:30:50.366Z,99764.44
2022-12-09T02:33:42.144Z,99759.91
2022-12-09T02:36:20.633Z,99759.09
2022-12-09T02:38:49.396Z,99760.34
2022-12-09T02:41:30.500Z,99750.47
2022-12-09T02:44:04.812Z,99746.75
2022-12-09T02:46:34.333Z,99742.44
2022-12-09T02:49:01.061Z,99751.53
2022-12-09T02:51:31.570Z,99743.28
2022-12-09T02:54:09.396Z,99741.72
2022-12-09T02:56:36.415Z,99740.09
2022-12-09T02:59:02.861Z,99741.72
2022-12-09T03:01:37.850Z,99739.09
2022-12-09T03:04:07.268Z,99732.19
2022-12-09T03:06:46.790Z,99732.84
2022-12-09T03:09:36.733Z,99728.00
2022-12-09T03:12:09.006Z,99731.63
2022-12-09T03:14:41.898Z,99729.50
2022-12-09T03:17:29.551Z,99729.81
2022-12-09T03:20:00.904Z,99725.09
2022-12-09T03:22:31.381Z,99732.53
2022-12-09T03:25:13.100Z,99723.78
2022-12-09T03:27:53.565Z,99728.13
2022-12-09T03:30:20.544Z,99717.31
2022-12-09T03:32:47.245Z,99719.72
2022-12-09T03:35:23.325Z,99713.91
2022-12-09T03:37:51.854Z,99720.06
2022-12-09T03:40:24.810Z,99709.97
2022-12-09T03:43:00.985Z,99705.66
2022-12-09T03:45:28.811Z,99711.69
2022-12-09T03:47:55.783Z,99713.28
2022-12-09T03:50:24.656Z,99711.63
2022-12-09T03:53:01.363Z,99708.97
2022-12-09T03:55:40.202Z,99709.47
2022-12-09T03:58:09.913Z,99702.63
2022-12-09T04:00:37.609Z,99699.97
2022-12-09T04:03:06.406Z,99698.03
2022-12-09T04:05:33.227Z,99696.78
2022-12-09T04:07:59.863Z,99696.88
2022-12-09T04:10:26.347Z,99696.63
2022-12-09T04:12:52.796Z,99693.91
2022-12-09T04:15:19.452Z,99698.13
2022-12-09T04:17:46.054Z,99699.81
2022-12-09T04:20:13.279Z,99704.44
2022-12-09T04:22:40.365Z,99699.88
2022-12-09T04:25:07.053Z,99707.81
2022-12-09T04:27:33.782Z,99702.56
2022-12-09T04:30:00.367Z,99694.97
2022-12-09T04:32:29.606Z,99695.63
2022-12-09T04:34:56.149Z,99696.41
2022-12-09T04:37:22.649Z,99692.44
2022-12-09T04:39:49.289Z,99690.56
2022-12-09T04:42:15.709Z,99686.59
2022-12-09T04:44:42.490Z,99695.16
2022-12-09T04:47:09.060Z,99690.50
2022-12-09T04:49:35.658Z,99695.16
2022-12-09T04:52:02.398Z,99693.47
2022-12-09T04:54:28.927Z,99698.09
2022-12-09T04:56:55.695Z,99701.09
2022-12-09T04:59:22.460Z,99700.50
2022-12-09T05:01:49.157Z,99696.34
2022-12-09T05:04:15.819Z,99700.31
2022-12-09T05:06:42.727Z,99697.34
2022-12-09T05:09:13.408Z,99697.88
2022-12-09T05:11:40.540Z,99698.94
2022-12-09T05:14:07.197Z,99700.94
2022-12-09T05:16:33.805Z,99694.53
2022-12-09T05:19:00.672Z,99706.66
2022-12-09T05:21:27.487Z,99700.91
2022-12-09T05:23:54.214Z,99710.50
2022-12-09T05:26:22.227Z,99706.22
2022-12-09T05:28:50.049Z,99702.56
2022-12-09T05:31:19.724Z,99699.63
2022-12-09T05:33:47.318Z,99698.91
2022-12-09T05:36:16.999Z,99699.72
2022-12-09T05:38:43.780Z,99693.56
2022-12-09T05:41:11.100Z,99689.03
2022-12-09T05:43:37.992Z,99685.72
2022-12-09T05:46:06.571Z,99694.88
2022-12-09T05:48:33.557Z,99685.94
2022-12-09T05:51:03.576Z,99688.97
2022-12-09T05:53:30.506Z,99682.25
2022-12-09T05:55:57.367Z,99683.28
2022-12-09T05:58:24.640Z,99679.78
2022-12-09T06:00:51.592Z,99676.47
2022-12-09T06:03:18.288Z,99676.66
2022-12-09T06:05:45.252Z,99682.91
2022-12-09T06:08:12.100Z,99675.47
2022-12-09T06:10:40.777Z,99677.66
2022-12-09T06:13:08.518Z,99683.31
2022-12-09T06:15:35.903Z,99675.50
2022-12-09T06:18:03.958Z,99685.69
2022-12-09T06:20:30.800Z,99674.34
2022-12-09T06:22:57.725Z,99689.09
2022-12-09T06:25:24.191Z,99692.94
2022-12-09T06:27:52.614Z,99685.19
2022-12-09T06:30:19.664Z,99684.69
2022-12-09T06:32:46.772Z,99679.22
2022-12-09T06:35:13.964Z,99691.03
2022-12-09T06:37:41.632Z,99689.09
2022-12-09T06:40:08.760Z,99686.66
2022-12-09T06:42:35.588Z,99681.97
2022-12-09T06:45:02.438Z,99676.84
2022-12-09T06:47:29.039Z,99672.59
2022-12-09T06:49:59.338Z,99665.16
2022-12-09T06:52:29.391Z,99678.28
2022-12-09T06:54:56.268Z,99683.19
2022-12-09T06:57:22.836Z,99678.66
2022-12-09T06:59:49.451Z,99680.53
2022-12-09T07:02:16.063Z,99683.06
2022-12-09T07:04:43.250Z,99684.19
2022-12-09T07:07:11.234Z,99685.56
2022-12-09T07:09:38.531Z,99691.78
2022-12-09T07:12:05.510Z,99685.94
2022-12-09T07:14:31.993Z,99687.72
2022-12-09T07:16:58.850Z,99689.66
2022-12-09T07:19:25.568Z,99693.38
2022-12-09T07:21:52.439Z,99689.44
2022-12-09T07:24:19.545Z,99696.03
2022-12-09T07:26:46.447Z,99690.44
2022-12-09T07:29:12.944Z,99687.59
2022-12-09T07:31:39.760Z,99693.41
2022-12-09T07:34:06.735Z,99693.59
2022-12-09T07:36:35.130Z,99695.72
2022-12-09T07:39:05.491Z,99696.13
2022-12-09T07:41:32.431Z,99701.84
2022-12-09T07:43:59.226Z,99699.56
2022-12-09T07:46:26.089Z,99706.56
2022-12-09T07:48:53.652Z,99706.22
2022-12-09T07:51:20.433Z,99714.34
2022-12-09T07:53:47.786Z,99710.19
2022-12-09T07:56:16.332Z,99716.59
2022-12-09T07:58:44.040Z,99712.88
2022-12-09T08:01:16.738Z,99724.19
2022-12-09T08:03:44.565Z,99718.34
2022-12-09T08:06:14.026Z,99718.22
2022-12-09T08:08:41.052Z,99715.56
2022-12-09T08:11:08.509Z,99710.94
2022-12-09T08:13:36.052Z,99714.69
2022-12-09T08:16:04.614Z,99715.63
2022-12-09T08:18:31.876Z,99713.63
2022-12-09T08:20:59.494Z,99726.69
2022-12-09T08:23:26.428Z,99715.84
2022-12-09T08:25:55.159Z,99714.75
2022-12-09T08:28:23.360Z,99718.84
2022-12-09T08:30:50.650Z,99727.09
2022-12-09T08:33:18.121Z,99716.78
2022-12-09T08:35:45.114Z,99723.66
2022-12-09T08:38:11.956Z,99718.31
2022-12-09T08:40:38.831Z,99726.28
2022-12-09T08:43:09.017Z,99729.22
2022-12-09T08:45:39.983Z,99724.78
2022-12-09T08:48:08.001Z,99724.81
2022-12-09T08:50:35.473Z,99725.59
2022-12-09T08:53:02.553Z,99729.72
2022-12-09T08:55:29.322Z,99718.34
2022-12-09T08:57:57.358Z,99735.00
2022-12-09T09:00:24.251Z,99729.22
2022-12-09T09:02:51.029Z,99722.56
2022-12-09T09:05:17.934Z,99729.41
2022-12-09T09:07:45.186Z,99733.47
2022-12-09T09:10:13.199Z,99742.53
2022-12-09T09:12:43.568Z,99726.19
2022-12-09T09:15:11.593Z,99733.56
2022-12-09T09:17:38.601Z,99728.31
2022-12-09T09:20:06.238Z,99733.09
2022-12-09T09:22:34.596Z,99739.06
2022-12-09T09:25:01.540Z,99736.38
2022-12-09T09:27:28.392Z,99725.69
2022-12-09T09:29:54.968Z,99741.47
2022-12-09T09:32:21.583Z,99740.16
2022-12-09T09:34:48.665Z,99748.19
2022-12-09T09:37:17.031Z,99742.59
2022-12-09T09:39:43.905Z,99738.22
2022-12-09T09:42:18.363Z,99745.69
2022-12-09T09:44:50.774Z,99742.25
2022-12-09T09:47:38.913Z,99747.72
2022-12-09T09:50:23.043Z,99745.06
2022-12-09T09:52:52.577Z,99746.97
2022-12-09T09:55:28.559Z,99740.72
2022-12-09T09:58:07.338Z,99746.75
2022-12-09T10:00:48.373Z,99742.75
2022-12-09T10:03:39.664Z,99747.56
2022-12-09T10:06:20.635Z,99739.59
2022-12-09T10:08:57.371Z,99738.06
2022-12-09T10:11:27.200Z,99737.09
2022-12-09T10:14:06.006Z,99738.84
2022-12-09T10:16:40.771Z,99725.94
2022-12-09T10:19:19.757Z,99723.53
2022-12-09T10:21:48.897Z,99718.66
2022-12-09T10:24:21.411Z,99722.63
2022-12-09T10:26:59.484Z,99715.69
2022-12-09T10:29:51.463Z,99717.13
2022-12-09T10:32:20.658Z,99714.56
2022-12-09T10:34:48.763Z,99710.56
2022-12-09T10:37:36.190Z,99712.97
2022-12-09T10:40:12.046Z,99708.72
2022-12-09T10:42:49.835Z,99714.00
2022-12-09T10:45:16.405Z,99706.38
2022-12-09T10:47:50.017Z,99702.19
2022-12-09T10:50:36.630Z,99699.25
2022-12-09T10:53:07.637Z,99696.66
2022-12-09T10:55:40.489Z,99703.09
2022-12-09T10:58:28.342Z,99696.53
2022-12-09T11:01:11.043Z,99693.47
2022-12-09T11:03:53.004Z,99697.44
2022-12-09T11:06:29.573Z,99697.91
2022-12-09T11:08:59.148Z,99695.84
2022-12-09T11:11:47.379Z,99697.50
2022-12-09T11:14:17.224Z,99692.66
2022-12-09T11:16:44.063Z,99695.06
2022-12-09T11:19:14.320Z,99691.06
2022-12-09T11:21:42.241Z,99689.97
2022-12-09T11:24:21.290Z,99690.50
2022-12-09T11:26:47.870Z,99692.13
2022-12-09T11:29:17.245Z,99691.59
2022-12-09T11:31:45.391Z,99688.34
2022-12-09T11:34:25.215Z,99688.34
2022-12-09T11:36:54.546Z,99687.56
2022-12-09T11:39:32.998Z,99689.34
2022-12-09T11:42:17.899Z,99682.97
2022-12-09T11:45:00.996Z,99678.69
2022-12-09T11:48:13.522Z,99685.19
2022-12-09T11:50:28.156Z,99690.03
2022-12-09T11:53:13.686Z,99685.19
2022-12-09T11:55:46.456Z,99686.84
2022-12-09T11:58:21.270Z,99690.34
2022-12-09T12:01:10.529Z,99686.31
2022-12-09T12:03:48.132Z,99691.13
2022-12-09T12:06:21.826Z,99685.19
2022-12-09T12:08:53.737Z,99678.22
2022-12-09T12:11:27.668Z,99678.81
2022-12-09T12:14:04.815Z,99671.59
2022-12-09T12:16:49.726Z,99672.59
2022-12-09T12:19:31.792Z,99667.19
2022-12-09T12:22:13.212Z,99672.25
2022-12-09T12:25:00.694Z,99670.16
2022-12-09T12:27:41.608Z,99674.19
2022-12-09T12:30:13.091Z,99667.00
2022-12-09T12:33:46.376Z,99670.81
2022-12-09T12:35:58.903Z,99663.34
2022-12-09T12:38:43.530Z,99668.63
2022-12-09T12:41:39.026Z,99668.63
2022-12-09T12:44:22.336Z,99667.28
2022-12-09T12:47:09.209Z,99664.94
2022-12-09T12:49:47.464Z,99659.59
2022-12-09T12:52:53.754Z,99668.16
2022-12-09T12:55:28.976Z,99656.88
2022-12-09T12:58:07.863Z,99655.56
2022-12-09T13:01:19.235Z,99645.66
2022-12-09T13:03:45.709Z,99649.38
2022-12-09T13:06:15.989Z,99644.81
2022-12-09T13:09:03.541Z,99644.81
2022-12-09T13:11:37.619Z,99648.56
2022-12-09T13:14:11.303Z,99647.19
2022-12-09T13:16:41.977Z,99636.97
2022-12-09T13:19:27.569Z,99635.91
2022-12-09T13:21:54.187Z,99633.78
2022-12-09T13:24:33.279Z,99634.81
2022-12-09T13:27:06.040Z,99634.81
2022-12-09T13:29:44.411Z,99641.22
2022-12-09T13:32:18.799Z,99644.69
2022-12-09T13:34:50.163Z,99645.38
2022-12-09T13:37:42.876Z,99641.53
2022-12-09T13:40:21.092Z,99646.25
2022-12-09T13:42:49.523Z,99644.94
2022-12-09T13:45:17.453Z,99637.72
2022-12-09T13:47:44.201Z,99643.88
2022-12-09T13:50:36.146Z,99631.53
2022-12-09T13:53:19.515Z,99634.31
2022-12-09T13:56:09.519Z,99643.19
2022-12-09T13:59:29.828Z,99636.00
2022-12-09T14:02:01.954Z,99636.84
2022-12-09T14:04:33.626Z,99635.75
2022-12-09T14:07:18.369Z,99631.97
2022-12-09T14:09:44.685Z,99634.41
2022-12-09T14:12:13.382Z,99638.41
2022-12-09T14:14:49.390Z,99633.53
2022-12-09T14:17:27.569Z,99635.75
2022-12-09T14:20:13.585Z,99630.91
2022-12-09T14:22:40.614Z,99635.88
2022-12-09T14:25:25.241Z,99641.94
2022-12-09T14:28:09.904Z,99629.16
2022-12-09T14:30:55.220Z,99634.91
2022-12-09T14:33:30.476Z,99635.47
2022-12-09T14:36:19.145Z,99633.53
2022-12-09T14:39:22.444Z,99635.88
2022-12-09T14:42:23.069Z,99636.88
2022-12-09T14:45:11.848Z,99634.75
2022-12-09T14:47:45.601Z,99635.19
2022-12-09T14:50:15.433Z,99637.25
2022-12-09T14:52:53.746Z,99648.28
2022-12-09T14:55:22.712Z,99641.81
2022-12-09T14:57:50.476Z,99648.16
2022-12-09T15:00:36.983Z,99648.31
2022-12-09T15:03:42.931Z,99651.66
2022-12-09T15:06:13.137Z,99647.88
2022-12-09T15:08:41.548Z,99650.94
2022-12-09T15:11:13.426Z,99652.06
2022-12-09T15:13:42.587Z,99648.88
2022-12-09T15:16:12.345Z,99652.72
2022-12-09T15:18:41.784Z,99649.75
2022-12-09T15:21:08.718Z,99651.13
2022-12-09T15:23:39.147Z,99650.00
2022-12-09T15:26:06.893Z,99655.78
2022-12-09T15:28:36.732Z,99657.41
2022-12-09T15:31:15.001Z,99651.09
2022-12-09T15:33:44.250Z,99656.91
2022-12-09T15:36:22.275Z,99658.19
2022-12-09T15:38:59.191Z,99657.88
2022-12-09T15:41:33.558Z,99658.44
2022-12-09T15:44:05.467Z,99660.50
2022-12-09T15:46:35.067Z,99661.84
2022-12-09T15:49:03.411Z,99662.16
2022-12-09T15:51:31.111Z,99669.50
2022-12-09T15:54:06.715Z,99669.16
2022-12-09T15:56:42.548Z,99674.16
2022-12-09T15:59:17.559Z,99678.81
2022-12-09T16:01:50.320Z,99675.94
2022-12-09T16:04:21.399Z,99674.97
2022-12-09T16:06:49.554Z,99685.59
2022-12-09T16:09:20.726Z,99681.28
2022-12-09T16:11:52.987Z,99682.34
2022-12-09T16:14:21.343Z,99667.97
2022-12-09T16:17:00.950Z,99681.66
2022-12-09T16:19:35.336Z,99682.59
2022-12-09T16:22:15.401Z,99692.91
2022-12-09T16:25:13.606Z,99690.28
2022-12-09T16:27:37.231Z,99699.44
2022-12-09T16:30:24.573Z,99699.91
2022-12-09T16:32:56.766Z,99691.59
2022-12-09T16:35:28.262Z,99694.25
2022-12-09T16:37:57.380Z,99691.69
2022-12-09T16:40:23.694Z,99700.25
2022-12-09T16:42:52.562Z,99698.34
2022-12-09T16:45:38.541Z,99686.53
2022-12-09T16:48:05.185Z,99692.78
2022-12-09T16:50:44.266Z,99687.16
2022-12-09T16:53:16.681Z,99685.22
2022-12-09T16:55:58.112Z,99683.94
2022-12-09T16:58:24.493Z,99689.88
2022-12-09T17:00:51.053Z,99685.94
2022-12-09T17:03:34.321Z,99694.88
2022-12-09T17:06:01.143Z,99688.72
2022-12-09T17:08:27.627Z,99695.19
2022-12-09T17:10:53.985Z,99700.63
2022-12-09T17:13:20.314Z,99702.25
2022-12-09T17:15:46.720Z,99694.97
2022-12-09T17:18:13.098Z,99697.72
2022-12-09T17:20:39.413Z,99705.81
2022-12-09T17:23:05.820Z,99696.00
2022-12-09T17:25:32.322Z,99706.06
2022-12-09T17:28:03.236Z,99707.00
2022-12-09T17:30:29.645Z,99704.22
2022-12-09T17:32:55.995Z,99704.69
2022-12-09T17:35:22.307Z,99711.31
2022-12-09T17:37:48.625Z,99703.66
2022-12-09T17:40:15.040Z,99709.66
2022-12-09T17:42:41.390Z,99703.53
2022-12-09T17:45:08.564Z,99706.19
2022-12-09T17:47:35.054Z,99707.72
2022-12-09T17:50:01.453Z,99711.19
2022-12-09T17:52:27.756Z,99715.91
2022-12-09T17:54:54.089Z,99710.09
2022-12-09T17:57:20.403Z,99721.44
2022-12-09T17:59:46.784Z,99720.84
2022-12-09T18:02:13.102Z,99721.09
2022-12-09T18:04:39.508Z,99726.88
2022-12-09T18:07:05.872Z,99724.81
2022-12-09T18:09:32.223Z,99724.13
2022-12-09T18:11:58.557Z,99721.09
2022-12-09T18:14:25.832Z,99716.03
2022-12-09T18:16:52.235Z,99717.50
2022-12-09T18:19:19.144Z,99718.22
2022-12-09T18:21:45.594Z,99718.56
2022-12-09T18:24:12.115Z,99724.00
2022-12-09T18:26:41.975Z,99717.88
2022-12-09T18:29:10.052Z,99722.75
2022-12-09T18:31:36.486Z,99734.88
2022-12-09T18:34:02.892Z,99729.66
2022-12-09T18:36:29.262Z,99731.97
2022-12-09T18:38:55.871Z,99733.47
2022-12-09T18:41:24.981Z,99730.59
2022-12-09T18:43:53.458Z,99737.38
2022-12-09T18:46:25.439Z,99740.75
2022-12-09T18:49:03.533Z,99737.03
2022-12-09T18:51:30.314Z,99747.94
2022-12-09T18:53:58.138Z,99745.72
2022-12-09T18:56:24.519Z,99751.09
2022-12-09T18:59:06.011Z,99748.56
2022-12-09T19:01:33.724Z,99752.72
2022-12-09T19:04:02.389Z,99757.63
2022-12-09T19:06:30.228Z,99747.47
2022-12-09T19:09:09.046Z,99762.16
2022-12-09T19:11:38.023Z,99748.69
2022-12-09T19:14:05.988Z,99756.84
2022-12-09T19:16:32.371Z,99752.44
2022-12-09T19:19:03.697Z,99755.94
2022-12-09T19:21:33.862Z,99747.75
2022-12-09T19:24:00.191Z,99747.84
2022-12-09T19:26:29.433Z,99756.13
2022-12-09T19:28:58.178Z,99756.97
2022-12-09T19:31:28.043Z,99756.50
2022-12-09T19:33:59.132Z,99755.75
2022-12-09T19:36:27.056Z,99756.03
2022-12-09T19:38:53.429Z,99766.38
2022-12-09T19:41:19.953Z,99762.28
2022-12-09T19:43:47.473Z,99759.25
2022-12-09T19:46:14.976Z,99763.50
2022-12-09T19:48:43.684Z,99777.00
2022-12-09T19:51:13.002Z,99775.94
2022-12-09T19:53:40.056Z,99774.53
2022-12-09T19:56:10.186Z,99772.78
2022-12-09T19:58:39.023Z,99775.03
2022-12-09T20:01:09.523Z,99763.63
2022-12-09T20:03:37.196Z,99770.22
2022-12-09T20:06:05.577Z,99767.66
2022-12-09T20:08:31.900Z,99770.63
2022-12-09T20:10:58.401Z,99769.19
2022-12-09T20:13:30.188Z,99773.25
2022-12-09T20:16:03.100Z,99773.16
2022-12-09T20:18:29.502Z,99765.03
2022-12-09T20:20:55.838Z,99774.84
2022-12-09T20:23:22.178Z,99783.84
2022-12-09T20:25:48.525Z,99784.06
2022-12-09T20:28:14.864Z,99788.78
2022-12-09T20:30:41.253Z,99791.44
2022-12-09T20:33:07.614Z,99781.66
2022-12-09T20:35:36.469Z,99785.66
2022-12-09T20:38:04.139Z,99770.97
2022-12-09T20:40:30.690Z,99779.06
2022-12-09T20:42:57.463Z,99783.56
2022-12-09T20:45:23.836Z,99786.50
2022-12-09T20:47:50.197Z,99787.63
2022-12-09T20:50:16.645Z,99790.28
2022-12-09T20:52:43.026Z,99789.69
2022-12-09T20:55:09.408Z,99790.13
2022-12-09T20:57:35.796Z,99784.25
2022-12-09T21:00:02.231Z,99794.41
2022-12-09T21:02:28.628Z,99799.16
2022-12-09T21:04:54.996Z,99798.81
2022-12-09T21:07:21.371Z,99801.13
2022-12-09T21:09:47.771Z,99800.91
2022-12-09T21:12:14.171Z,99803.94
2022-12-09T21:14:40.605Z,99802.38
2022-12-09T21:17:06.960Z,99804.13
2022-12-09T21:19:33.336Z,99799.94
2022-12-09T21:21:59.737Z,99803.63
2022-12-09T21:24:26.122Z,99801.19
2022-12-09T21:26:52.721Z,99798.69
2022-12-09T21:29:19.538Z,99796.41
2022-12-09T21:31:46.040Z,99805.75
2022-12-09T21:34:12.434Z,99803.41
2022-12-09T21:36:43.696Z,99802.22
2022-12-09T21:39:13.164Z,99797.03
2022-12-09T21:41:39.727Z,99802.59
2022-12-09T21:44:06.678Z,99806.00
2022-12-09T21:46:35.862Z,99801.59
2022-12-09T21:49:04.814Z,99803.84
2022-12-09T21:51:32.354Z,99800.41
2022-12-09T21:53:58.792Z,99802.56
2022-12-09T21:56:28.249Z,99798.91
2022-12-09T21:58:56.950Z,99814.03
2022-12-09T22:01:26.758Z,99814.03
2022-12-09T22:03:54.104Z,99818.31
2022-12-09T22:06:21.020Z,99818.31
2022-12-09T22:08:47.503Z,99825.25
2022-12-09T22:11:25.506Z,99820.97
2022-12-09T22:13:53.098Z,99823.91
2022-12-09T22:16:25.385Z,99823.16
2022-12-09T22:18:56.783Z,99818.50
2022-12-09T22:21:26.286Z,99818.44
2022-12-09T22:23:55.029Z,99827.75
2022-12-09T22:26:22.353Z,99834.00
2022-12-09T22:28:49.291Z,99833.13
2022-12-09T22:31:19.978Z,99836.84
2022-12-09T22:33:47.349Z,99828.03
2022-12-09T22:36:14.663Z,99826.97
2022-12-09T22:38:42.275Z,99828.06
2022-12-09T22:41:17.707Z,99822.47
2022-12-09T22:43:44.396Z,99835.38
2022-12-09T22:46:17.179Z,99836.97
2022-12-09T22:48:43.764Z,99840.28
2022-12-09T22:51:13.227Z,99841.25
2022-12-09T22:53:40.220Z,99847.28
2022-12-09T22:56:07.123Z,99846.13
2022-12-09T22:58:34.694Z,99843.06
2022-12-09T23:01:01.194Z,99845.44
2022-12-09T23:03:28.198Z,99852.44
2022-12-09T23:05:54.609Z,99846.78
2022-12-09T23:08:21.038Z,99851.88
2022-12-09T23:10:47.424Z,99850.19
2022-12-09T23:13:13.805Z,99856.22
2022-12-09T23:15:40.799Z,99852.97
2022-12-09T23:18:07.254Z,99846.41
2022-12-09T23:20:33.671Z,99844.84
2022-12-09T23:23:00.099Z,99849.72
2022-12-09T23:25:26.610Z,99846.31
2022-12-09T23:27:52.975Z,99851.03
2022-12-09T23:30:19.353Z,99855.63
2022-12-09T23:32:45.729Z,99847.16
2022-12-09T23:35:12.393Z,99848.78
2022-12-09T23:37:38.740Z,99850.94
2022-12-09T23:40:06.189Z,99852.06
2022-12-09T23:42:32.789Z,99838.88
2022-12-09T23:44:59.166Z,99842.41
2022-12-09T23:47:25.568Z,99849.78
2022-12-09T23:49:51.936Z,99850.31
2022-12-09T23:52:18.306Z,99843.59
2022-12-09T23:54:44.765Z,99847.97
2022-12-09T23:57:11.115Z,99843.81
2022-12-09T23:59:37.473Z,99854.72
